createdAt,value
2019-04-10T00:00:45.906Z,23.57
2019-04-10T00:05:48.000Z,24.90
2019-04-10T00:10:50.600Z,23.90
2019-04-10T00:15:53.141Z,24.03
2019-04-10T00:20:56.619Z,24.33
2019-04-10T00:25:59.319Z,25.47
2019-04-10T00:31:01.844Z,23.70
2019-04-10T00:36:03.740Z,26.67
2019-04-10T00:41:06.052Z,27.63
2019-04-10T00:46:08.508Z,23.73
2019-04-10T00:51:11.035Z,24.60
2019-04-10T00:56:14.512Z,27.03
2019-04-10T01:01:16.156Z,26.90
2019-04-10T01:06:19.801Z,26.07
2019-04-10T01:11:21.293Z,26.37
2019-04-10T01:16:23.806Z,26.20
2019-04-10T01:21:30.454Z,27.23
2019-04-10T01:26:31.942Z,24.50
2019-04-10T01:31:35.123Z,24.40
2019-04-10T01:36:37.513Z,26.70
2019-04-10T01:41:39.910Z,23.97
2019-04-10T01:46:42.470Z,26.80
2019-04-10T01:51:45.591Z,23.97
2019-04-10T01:56:47.958Z,26.20
2019-04-10T02:01:53.929Z,25.77
2019-04-10T02:06:56.433Z,24.07
2019-04-10T02:11:59.054Z,24.10
2019-04-10T02:17:01.656Z,26.10
2019-04-10T02:22:04.418Z,23.13
2019-04-10T02:27:07.792Z,25.80
2019-04-10T02:32:10.332Z,25.63
2019-04-10T02:37:12.882Z,27.27
2019-04-10T02:42:14.535Z,25.43
2019-04-10T02:47:17.119Z,26.13
2019-04-10T02:52:20.271Z,27.97
2019-04-10T02:57:22.200Z,27.53
2019-04-10T03:02:26.438Z,28.67
2019-04-10T03:07:28.352Z,28.50
2019-04-10T03:12:30.210Z,29.70
2019-04-10T03:17:33.261Z,29.10
2019-04-10T03:22:35.235Z,28.63
2019-04-10T03:27:38.708Z,28.63
2019-04-10T03:33:03.296Z,29.73
2019-04-10T03:38:02.497Z,30.90
2019-04-10T03:43:05.568Z,29.63
2019-04-10T03:48:08.459Z,30.47
2019-04-10T03:53:10.326Z,31.03
2019-04-10T03:58:13.478Z,29.80
2019-04-10T04:03:16.110Z,30.33
2019-04-10T04:08:18.050Z,30.00
2019-04-10T04:13:21.550Z,33.13
2019-04-10T04:18:23.166Z,30.63
2019-04-10T04:23:25.774Z,31.70
2019-04-10T04:28:28.303Z,28.13
2019-04-10T04:33:31.749Z,30.70
2019-04-10T04:38:34.620Z,30.47
2019-04-10T04:43:37.066Z,30.27
2019-04-10T04:48:38.842Z,28.60
2019-04-10T04:53:42.007Z,30.57
2019-04-10T04:58:44.019Z,29.83
2019-04-10T05:03:46.626Z,31.23
2019-04-10T05:08:49.215Z,29.37
2019-04-10T05:13:51.801Z,31.87
2019-04-10T05:18:54.415Z,32.40
2019-04-10T05:23:57.519Z,31.43
2019-04-10T05:29:00.517Z,32.33
2019-04-10T05:34:03.057Z,31.33
2019-04-10T05:39:06.378Z,35.70
2019-04-10T05:44:09.515Z,33.87
2019-04-10T05:49:11.336Z,31.20
2019-04-10T05:54:14.917Z,30.60
2019-04-10T05:59:16.700Z,33.70
2019-04-10T06:04:19.215Z,35.90
2019-04-10T06:09:22.752Z,32.50
2019-04-10T06:14:24.383Z,33.43
2019-04-10T06:19:26.997Z,32.60
2019-04-10T06:24:29.945Z,32.30
2019-04-10T06:29:32.065Z,31.67
2019-04-10T06:34:34.611Z,32.27
2019-04-10T06:39:37.223Z,32.90
2019-04-10T06:44:39.666Z,29.67
2019-04-10T06:49:42.220Z,33.63
2019-04-10T06:54:44.893Z,31.93
2019-04-10T06:59:48.224Z,33.73
2019-04-10T07:04:54.261Z,33.47
2019-04-10T07:09:55.137Z,33.10
2019-04-10T07:14:58.050Z,33.43
2019-04-10T07:19:57.692Z,33.17
2019-04-10T07:25:00.547Z,32.63
2019-04-10T07:30:03.576Z,30.90
2019-04-10T07:35:06.649Z,32.77
2019-04-10T07:40:08.348Z,30.97
2019-04-10T07:45:10.961Z,31.70
2019-04-10T07:50:14.271Z,33.27
2019-04-10T07:55:16.946Z,31.90
2019-04-10T08:00:20.044Z,32.53
2019-04-10T08:05:21.471Z,32.93
2019-04-10T08:10:24.261Z,36.73
2019-04-10T08:15:27.319Z,33.50
2019-04-10T08:20:30.567Z,33.13
2019-04-10T08:25:33.226Z,29.90
2019-04-10T08:30:34.957Z,32.70
2019-04-10T08:35:37.844Z,32.03
2019-04-10T08:40:40.445Z,31.80
2019-04-10T08:45:47.123Z,31.57
2019-04-10T08:50:46.123Z,32.73
2019-04-10T08:55:48.500Z,31.93
2019-04-10T09:00:52.347Z,33.43
2019-04-10T09:05:53.210Z,35.43
2019-04-10T09:10:55.794Z,31.40
2019-04-10T09:15:58.444Z,33.30
2019-04-10T09:21:00.946Z,31.20
2019-04-10T09:26:03.834Z,30.63
2019-04-10T09:31:07.277Z,29.93
2019-04-10T09:36:09.039Z,32.20
2019-04-10T09:41:11.913Z,31.77
2019-04-10T09:46:14.052Z,32.83
2019-04-10T09:51:18.457Z,32.33
2019-04-10T09:56:19.402Z,29.87
2019-04-10T10:01:22.077Z,31.80
2019-04-10T10:06:30.699Z,33.50
2019-04-10T10:11:27.247Z,30.97
2019-04-10T10:16:30.322Z,33.77
2019-04-10T10:21:32.509Z,31.97
2019-04-10T10:26:36.371Z,32.37
2019-04-10T10:31:38.078Z,33.47
2019-04-10T10:36:44.459Z,30.60
2019-04-10T10:41:43.140Z,33.53
2019-04-10T10:46:45.727Z,31.70
2019-04-10T10:51:48.253Z,31.17
2019-04-10T10:56:50.994Z,30.80
2019-04-10T11:01:53.876Z,32.80
2019-04-10T11:07:00.463Z,33.87
2019-04-10T11:12:00.135Z,30.27
2019-04-10T11:17:01.566Z,30.97
2019-04-10T11:22:05.127Z,32.27
2019-04-10T11:27:08.545Z,32.20
2019-04-10T11:32:11.672Z,32.10
2019-04-10T11:37:23.112Z,31.40
2019-04-10T11:42:15.631Z,33.10
2019-04-10T11:47:20.030Z,33.17
2019-04-10T11:52:32.049Z,32.30
2019-04-10T11:57:23.436Z,31.13
2019-04-10T12:02:28.178Z,33.27
2019-04-10T12:07:58.614Z,31.93
2019-04-10T12:12:31.184Z,32.13
2019-04-10T12:17:33.879Z,29.17
2019-04-10T12:22:36.406Z,30.70
2019-04-10T12:27:39.103Z,30.53
2019-04-10T12:32:41.684Z,29.17
2019-04-10T12:37:45.337Z,30.77
2019-04-10T12:42:48.222Z,32.27
2019-04-10T12:47:52.373Z,30.93
2019-04-10T12:52:54.722Z,32.57
2019-04-10T12:58:06.619Z,31.70
2019-04-10T13:03:00.738Z,31.60
2019-04-10T13:08:14.691Z,30.53
2019-04-10T13:13:05.948Z,30.53
2019-04-10T13:18:07.986Z,31.03
2019-04-10T13:23:10.856Z,24.67
2019-04-10T13:28:12.792Z,30.20
2019-04-10T13:33:16.259Z,32.90
2019-04-10T13:38:25.779Z,30.70
2019-04-10T13:43:20.861Z,34.03
2019-04-10T13:48:23.672Z,31.63
2019-04-10T13:53:26.411Z,32.53
2019-04-10T13:58:29.077Z,31.13
2019-04-10T14:03:31.592Z,30.23
2019-04-10T14:08:56.038Z,29.97
2019-04-10T14:13:37.990Z,29.07
2019-04-10T14:18:39.670Z,28.50
2019-04-10T14:23:43.125Z,31.20
2019-04-10T14:28:45.737Z,33.40
2019-04-10T14:33:48.895Z,33.27
2019-04-10T14:38:51.561Z,36.17
2019-04-10T14:43:57.744Z,35.57
2019-04-10T14:48:59.367Z,33.60
2019-04-10T14:54:03.745Z,32.00
2019-04-10T14:59:05.386Z,34.80
2019-04-10T15:04:09.020Z,36.63
2019-04-10T15:09:23.240Z,33.90
2019-04-10T15:14:17.922Z,36.03
2019-04-10T15:19:20.555Z,33.33
2019-04-10T15:24:23.766Z,36.80
2019-04-10T15:29:25.724Z,36.80
2019-04-10T15:34:28.331Z,39.20
2019-04-10T15:39:35.655Z,35.83
2019-04-10T15:44:34.303Z,38.27
2019-04-10T15:49:36.631Z,38.60
2019-04-10T15:54:38.899Z,41.67
2019-04-10T15:59:41.582Z,36.00
2019-04-10T16:04:44.459Z,35.47
2019-04-10T16:09:50.714Z,36.57
2019-04-10T16:14:50.663Z,37.47
2019-04-10T16:19:58.148Z,34.57
2019-04-10T16:25:05.364Z,36.60
2019-04-10T16:30:10.313Z,34.70
2019-04-10T16:35:13.875Z,37.27
2019-04-10T16:40:15.427Z,35.60
2019-04-10T16:45:18.093Z,34.07
2019-04-10T16:50:21.565Z,34.33
2019-04-10T16:55:23.252Z,35.30
2019-04-10T17:00:26.918Z,37.73
2019-04-10T17:05:28.543Z,33.47
2019-04-10T17:10:32.380Z,34.87
2019-04-10T17:15:34.396Z,33.87
2019-04-10T17:20:38.258Z,34.47
2019-04-10T17:25:39.814Z,36.87
2019-04-10T17:30:42.485Z,36.00
2019-04-10T17:35:45.530Z,32.93
2019-04-10T17:40:51.329Z,32.20
2019-04-10T17:45:50.982Z,31.57
2019-04-10T17:50:53.377Z,35.60
2019-04-10T17:55:56.002Z,34.50
2019-04-10T18:00:59.660Z,33.70
2019-04-10T18:06:01.553Z,34.73
2019-04-10T18:11:04.359Z,35.87
2019-04-10T18:16:07.006Z,38.37
2019-04-10T18:21:10.581Z,37.13
2019-04-10T18:26:12.671Z,35.47
2019-04-10T18:31:16.651Z,36.93
2019-04-10T18:36:19.463Z,36.63
2019-04-10T18:41:22.105Z,34.53
2019-04-10T18:46:24.041Z,35.17
2019-04-10T18:51:26.701Z,32.27
2019-04-10T18:56:29.312Z,38.03
2019-04-10T19:01:37.062Z,36.03
2019-04-10T19:06:46.782Z,35.33
2019-04-10T19:11:48.719Z,39.07
2019-04-10T19:16:52.798Z,37.27
2019-04-10T19:21:54.250Z,39.07
2019-04-10T19:26:57.892Z,34.27
2019-04-10T19:32:02.173Z,37.77
2019-04-10T19:37:04.041Z,37.97
2019-04-10T19:42:06.574Z,36.13
2019-04-10T19:47:10.363Z,37.10
2019-04-10T19:52:12.100Z,37.47
2019-04-10T19:57:15.292Z,37.33
2019-04-10T20:02:17.333Z,37.23
2019-04-10T20:07:20.733Z,35.57
2019-04-10T20:12:22.685Z,36.63
2019-04-10T20:17:26.069Z,36.10
2019-04-10T20:22:28.353Z,37.27
2019-04-10T20:27:30.491Z,36.97
2019-04-10T20:32:34.201Z,35.33
2019-04-10T20:37:36.596Z,36.23
2019-04-10T20:42:38.508Z,35.27
2019-04-10T20:47:41.318Z,34.83
2019-04-10T20:52:43.724Z,36.87
2019-04-10T20:57:46.237Z,37.70
2019-04-10T21:02:48.902Z,36.77
2019-04-10T21:07:52.301Z,33.97
2019-04-10T21:12:54.602Z,32.20
2019-04-10T21:17:57.051Z,35.40
2019-04-10T21:22:59.158Z,33.23
2019-04-10T21:28:02.528Z,28.87
2019-04-10T21:34:10.489Z,30.43
2019-04-10T21:39:12.356Z,29.60
2019-04-10T21:44:13.841Z,27.20
2019-04-10T21:49:16.546Z,27.40
2019-04-10T21:54:19.028Z,27.67
2019-04-10T21:59:22.550Z,27.33
2019-04-10T22:04:25.114Z,26.13
2019-04-10T22:09:32.069Z,23.63
2019-04-10T22:14:34.599Z,25.27
2019-04-10T22:19:38.107Z,24.30
2019-04-10T22:24:40.511Z,25.03
2019-04-10T22:29:42.660Z,26.73
2019-04-10T22:34:44.471Z,24.23
2019-04-10T22:39:48.115Z,25.47
2019-04-10T22:44:49.789Z,24.13
2019-04-10T22:49:51.806Z,20.43
2019-04-10T22:54:55.248Z,18.57
2019-04-10T22:59:57.421Z,16.90
2019-04-10T23:04:59.785Z,15.27
2019-04-10T23:10:02.581Z,15.30
2019-04-10T23:15:04.345Z,13.53
2019-04-10T23:20:06.878Z,13.83
2019-04-10T23:25:10.016Z,13.17
2019-04-10T23:30:14.922Z,12.57
2019-04-10T23:35:17.365Z,14.73
2019-04-10T23:40:20.920Z,13.87
2019-04-10T23:45:23.783Z,14.90
2019-04-10T23:50:26.014Z,14.17
2019-04-10T23:55:28.149Z,13.00
